Time;durP1;ratioP1;P1;durP2;ratioP2;P2;SDS_P1;SDS_P2;PMS_P1;PMS_P2;Temp;Humidity;BMP_temperature;BMP_pressure;BME280_temperature;BME280_humidity;BME280_pressure;Samples;Min_cycle;Max_cycle;Signal;HPM_P1;HPM_P2
2023/10/09 00:04:20;;;;;;;29.90;12.50;;;;;;;4.10;100.00;101359.31;223665;1263;140886;-86
2023/10/09 00:16:32;;;;;;;32.60;17.30;;;;;;;4.13;100.00;101340.77;224080;1267;138785;-86
2023/10/09 00:28:21;;;;;;;30.10;11.00;;;;;;;4.22;100.00;101334.48;224240;1266;138800;-86
2023/10/09 00:34:19;;;;;;;30.70;12.70;;;;;;;4.24;100.00;101342.17;223721;1263;140530;-88
2023/10/09 00:40:20;;;;;;;22.80;11.70;;;;;;;4.26;100.00;101321.89;223608;1267;140237;-85
2023/10/09 00:52:29;;;;;;;;;;;;;;;;;;;;;
2023/10/09 00:58:27;;;;;;;23.80;11.20;;;;;;;4.41;100.00;101297.23;224137;1263;139126;-86
2023/10/09 01:22:41;;;;;;;31.00;14.20;;;;;;;4.62;100.00;101280.89;223722;1265;139758;-84
2023/10/09 01:28:42;;;;;;;23.50;10.80;;;;;;;4.68;100.00;101282.07;224178;1267;138661;-84
2023/10/09 01:41:08;;;;;;;23.90;10.10;;;;;;;4.76;100.00;101267.16;223610;1267;140093;-86
2023/10/09 01:46:47;;;;;;;24.10;8.90;;;;;;;4.79;100.00;101269.73;224221;1267;139285;-86
2023/10/09 01:58:50;;;;;;;16.50;7.50;;;;;;;4.88;100.00;101236.96;224275;1264;138614;-86
2023/10/09 02:17:17;;;;;;;20.40;7.20;;;;;;;5.05;100.00;101205.20;224288;1268;138319;-87
2023/10/09 02:22:54;;;;;;;15.80;7.90;;;;;;;5.12;100.00;101196.37;223660;1267;140172;-86
2023/10/09 02:28:52;;;;;;;17.60;7.90;;;;;;;5.19;100.00;101197.33;224391;1264;95569;-86
2023/10/09 02:34:46;;;;;;;16.50;7.60;;;;;;;5.25;100.00;101192.81;223792;1263;139722;-86
2023/10/09 02:41:17;;;;;;;18.60;8.20;;;;;;;5.31;100.00;101185.15;223666;1264;139695;-86
2023/10/09 02:47:17;;;;;;;16.10;7.20;;;;;;;5.37;100.00;101175.50;224316;1267;138489;-86
2023/10/09 02:52:56;;;;;;;21.50;7.30;;;;;;;5.42;100.00;101155.84;223699;1265;139676;-87
2023/10/09 02:59:05;;;;;;;17.90;6.50;;;;;;;5.45;100.00;101124.09;224328;1264;139243;-86
2023/10/09 03:04:58;;;;;;;13.80;6.10;;;;;;;5.51;100.00;101098.96;223844;1264;139831;-86
2023/10/09 03:16:51;;;;;;;12.40;5.10;;;;;;;5.66;100.00;101072.36;224235;1264;139211;-86
2023/10/09 03:22:54;;;;;;;10.90;4.80;;;;;;;5.73;100.00;101058.71;223772;1264;139910;-87
2023/10/09 03:28:53;;;;;;;11.00;4.40;;;;;;;5.80;100.00;101046.02;224338;1264;138306;-87
2023/10/09 03:34:55;;;;;;;12.30;4.70;;;;;;;5.88;100.00;101029.73;223783;1264;140543;-87
2023/10/09 03:40:56;;;;;;;11.60;4.50;;;;;;;5.95;100.00;101020.44;223822;1263;139942;-87
2023/10/09 03:46:57;;;;;;;10.40;4.10;;;;;;;6.02;100.00;101014.70;224226;1267;138469;-88
2023/10/09 03:52:59;;;;;;;9.00;4.00;;;;;;;6.10;100.00;101012.33;223697;1264;139919;-87
2023/10/09 03:59:01;;;;;;;9.20;4.30;;;;;;;6.17;100.00;101003.48;224270;1264;95829;-86
2023/10/09 04:05:00;;;;;;;10.00;4.50;;;;;;;6.24;100.00;100993.21;223877;1263;139381;-86
2023/10/09 04:11:23;;;;;;;10.20;4.40;;;;;;;6.33;100.00;100985.80;223860;1264;140036;-87
2023/10/09 04:41:33;;;;;;;10.00;3.90;;;;;;;6.73;99.50;100960.46;223937;1263;139866;-86
2023/10/09 04:59:46;;;;;;;13.90;6.70;;;;;;;6.99;100.00;100954.77;224379;1262;95806;-88
2023/10/09 05:06:20;;;;;;;11.20;5.60;;;;;;;7.04;100.00;100953.07;224466;1264;95881;-88
2023/10/09 05:17:38;;;;;;;12.10;6.00;;;;;;;7.08;100.00;100968.60;224477;1264;95952;-86
2023/10/09 06:31:46;;;;;;;16.10;6.40;;;;;;;7.41;100.00;100909.55;223952;1264;140851;-86
2023/10/09 06:43:09;;;;;;;11.00;5.40;;;;;;;7.52;100.00;100898.54;223895;1264;140883;-85
2023/10/09 06:55:19;;;;;;;13.50;5.80;;;;;;;7.74;100.00;100913.14;223960;1263;139257;-87
2023/10/09 07:13:08;;;;;;;12.30;5.40;;;;;;;8.18;100.00;100915.09;223846;1263;140432;-87
2023/10/09 07:31:24;;;;;;;11.00;4.80;;;;;;;8.69;100.00;100907.73;223850;1262;142279;-85
2023/10/09 07:37:16;;;;;;;;;;;;;;;;;;;;;
2023/10/09 07:43:18;;;;;;;7.80;3.70;;;;;;;9.05;100.00;100918.30;223692;1264;139814;-86
2023/10/09 07:49:25;;;;;;;9.00;3.80;;;;;;;9.21;100.00;100921.59;224374;1263;138077;-86
2023/10/09 07:55:48;;;;;;;9.00;4.10;;;;;;;9.41;100.00;100905.11;223887;1263;280017;-85
2023/10/09 08:38:07;;;;;;;6.80;3.40;;;;;;;10.70;100.00;100898.16;220454;1263;95698;-90
2023/10/09 08:44:10;;;;;;;10.40;3.50;;;;;;;10.81;100.00;100880.27;223930;1262;139906;-92
2023/10/09 08:50:14;;;;;;;9.60;4.30;;;;;;;10.99;100.00;100871.91;223768;1263;140867;-91
2023/10/09 09:02:21;;;;;;;10.50;4.80;;;;;;;11.41;100.00;100870.54;223921;1263;140422;-94
2023/10/09 09:14:44;;;;;;;10.00;4.80;;;;;;;11.45;100.00;100873.51;223960;1264;140337;-91
2023/10/09 09:20:53;;;;;;;9.50;4.60;;;;;;;11.64;100.00;100881.60;224052;1264;140531;-95
2023/10/09 09:26:58;;;;;;;9.70;4.40;;;;;;;11.65;99.84;100874.21;224387;1264;107273;-96
2023/10/09 09:45:23;;;;;;;9.90;2.90;;;;;;;12.32;97.17;100857.87;223918;1265;139591;-89
2023/10/09 09:51:08;;;;;;;7.30;3.20;;;;;;;12.33;94.87;100853.29;223951;1264;140336;-90
2023/10/09 09:57:28;;;;;;;7.60;3.40;;;;;;;12.16;92.70;100851.45;224384;1267;107336;-90
2023/10/09 10:03:10;;;;;;;9.00;3.90;;;;;;;12.16;94.48;100842.23;223768;1265;140574;-89
2023/10/09 10:09:12;;;;;;;10.80;4.20;;;;;;;12.25;92.46;100845.57;224388;1265;108115;-90
2023/10/09 10:21:16;;;;;;;8.30;4.40;;;;;;;12.71;89.10;100858.96;223701;1265;140301;-87
2023/10/09 10:33:35;;;;;;;13.20;5.70;;;;;;;12.84;88.75;100851.98;223804;1264;140409;-90
2023/10/09 10:39:45;;;;;;;9.60;4.90;;;;;;;12.85;88.42;100852.61;224467;1263;107033;-87
2023/10/09 10:45:46;;;;;;;11.00;5.70;;;;;;;12.85;87.32;100853.58;224429;1264;106257;-88
2023/10/09 10:58:23;;;;;;;9.00;3.60;;;;;;;12.47;85.82;100852.51;224221;1265;107544;-87
2023/10/09 11:35:20;;;;;;;7.40;3.30;;;;;;;12.20;86.94;100812.79;223437;1267;222708;-87
2023/10/09 11:47:54;;;;;;;8.20;3.30;;;;;;;12.49;85.93;100791.39;224492;1263;95758;-87
2023/10/09 11:59:08;;;;;;;8.60;2.90;;;;;;;12.67;85.02;100796.23;223645;1268;95742;-88
2023/10/09 12:05:16;;;;;;;10.10;3.90;;;;;;;12.74;85.23;100797.60;224018;1263;139197;-88
2023/10/09 12:10:58;;;;;;;9.30;3.20;;;;;;;12.76;84.77;100789.65;223802;1263;140418;-87
2023/10/09 12:17:05;;;;;;;10.60;3.60;;;;;;;12.78;84.46;100766.78;224238;1263;95979;-91
2023/10/09 12:23:04;;;;;;;8.70;3.30;;;;;;;12.84;83.87;100752.53;223771;1263;139892;-88
2023/10/09 12:29:30;;;;;;;7.40;3.10;;;;;;;12.77;82.68;100751.55;224286;1263;97259;-88
2023/10/09 12:35:17;;;;;;;7.30;3.50;;;;;;;12.70;83.94;100728.99;223721;1263;140809;-92
2023/10/09 12:41:26;;;;;;;9.50;3.20;;;;;;;12.85;83.32;100741.11;223946;1263;138863;-88
2023/10/09 12:47:18;;;;;;;6.40;2.60;;;;;;;12.79;82.80;100756.45;224412;1263;95814;-90
2023/10/09 12:53:17;;;;;;;7.40;3.10;;;;;;;12.74;83.19;100748.84;223836;1263;139697;-89
2023/10/09 12:59:20;;;;;;;9.60;3.90;;;;;;;12.72;83.68;100753.17;224244;1263;95934;-89
2023/10/09 13:11:22;;;;;;;;;;;;;;;;;;;;;
2023/10/09 13:17:53;;;;;;;9.60;3.50;;;;;;;12.56;83.98;100744.91;224272;1263;113804;-89
2023/10/09 13:23:33;;;;;;;8.90;3.60;;;;;;;12.39;83.82;100744.92;223587;1263;140213;-89
2023/10/09 13:29:25;;;;;;;10.10;3.80;;;;;;;12.32;84.36;100741.87;224303;1263;138922;-88
2023/10/09 13:35:37;;;;;;;6.50;3.10;;;;;;;12.24;84.61;100745.19;224091;1263;248765;-90
2023/10/09 13:41:29;;;;;;;8.10;3.40;;;;;;;12.13;84.25;100737.75;223896;1263;140206;-90
2023/10/09 13:47:32;;;;;;;8.50;3.40;;;;;;;12.10;84.29;100734.88;224374;1264;107950;-93
2023/10/09 13:53:21;;;;;;;;;;;;;;;;;;;;;
2023/10/09 13:59:22;;;;;;;;;;;;;;;;;;;;;
2023/10/09 14:05:08;;;;;;;;;;;;;;;;;;;;;
2023/10/09 14:11:37;;;;;;;7.60;3.10;;;;;;;12.07;84.13;100745.65;223892;1265;139986;-90
2023/10/09 14:17:11;;;;;;;9.00;3.20;;;;;;;12.06;84.14;100736.73;224100;1266;139201;-92
2023/10/09 14:22:50;;;;;;;7.50;3.00;;;;;;;12.01;84.55;100751.58;223674;1265;140070;-90
2023/10/09 14:28:53;;;;;;;8.10;3.40;;;;;;;12.00;84.87;100752.50;224192;1267;138899;-90
2023/10/09 14:34:55;;;;;;;7.40;3.20;;;;;;;11.97;85.02;100746.41;223573;1266;139681;-91
2023/10/09 14:40:59;;;;;;;9.20;3.50;;;;;;;11.95;85.10;100748.66;223691;1263;140307;-91
2023/10/09 14:46:58;;;;;;;13.60;3.90;;;;;;;11.85;84.26;100756.69;224227;1263;139288;-91
2023/10/09 14:52:50;;;;;;;;;;;;;;;;;;;;;
2023/10/09 14:58:34;;;;;;;;;;;;;;;;;;;;;
2023/10/09 15:04:38;;;;;;;9.00;4.30;;;;;;;11.66;84.57;100780.25;223697;1263;140291;-89
2023/10/09 15:10:39;;;;;;;8.20;3.40;;;;;;;11.52;85.46;100768.39;223582;1263;139949;-90
2023/10/09 15:16:38;;;;;;;9.30;3.60;;;;;;;11.45;86.00;100755.47;224203;1263;138404;-89
2023/10/09 15:22:37;;;;;;;11.00;3.90;;;;;;;11.41;86.90;100754.00;223620;1263;140234;-88
2023/10/09 15:28:40;;;;;;;11.00;4.80;;;;;;;11.36;86.99;100758.27;224179;1264;139259;-88
2023/10/09 15:34:31;;;;;;;9.30;4.50;;;;;;;11.31;87.02;100773.86;223789;1267;139960;-89
2023/10/09 15:40:34;;;;;;;11.80;5.40;;;;;;;11.24;87.66;100788.73;223449;1263;140141;-88
2023/10/09 15:52:55;;;;;;;12.00;6.00;;;;;;;11.09;89.11;100798.41;223615;1263;140299;-87
2023/10/09 16:04:44;;;;;;;15.50;8.20;;;;;;;10.96;89.16;100802.39;223654;1263;139962;-89
2023/10/09 16:10:35;;;;;;;;;;;;;;;;;;;;;
2023/10/09 16:16:45;;;;;;;20.80;9.30;;;;;;;10.82;89.96;100786.91;224216;1263;139255;-88
2023/10/09 16:28:48;;;;;;;19.80;9.10;;;;;;;10.67;91.65;100801.92;224163;1263;139284;-90
2023/10/09 16:34:48;;;;;;;17.60;8.10;;;;;;;10.59;92.57;100798.65;223643;1263;139954;-89
2023/10/09 16:46:42;;;;;;;;;;;;;;;;;;;;;
2023/10/09 16:52:37;;;;;;;19.10;9.30;;;;;;;10.49;92.85;100831.33;223539;1263;140238;-87
2023/10/09 16:58:29;;;;;;;;;;;;;;;;;;;;;
2023/10/09 17:04:54;;;;;;;14.70;8.10;;;;;;;10.42;94.37;100837.81;223697;1263;140336;-86
2023/10/09 17:10:56;;;;;;;22.40;12.40;;;;;;;10.37;94.70;100820.29;223597;1263;140201;-87
2023/10/09 17:16:35;;;;;;;;;;;;;;;;;;;;;
2023/10/09 17:28:40;;;;;;;51.30;30.60;;;;;;;10.04;96.32;100848.09;224246;1266;139957;-86
2023/10/09 17:34:40;;;;;;;35.90;18.80;;;;;;;10.00;96.43;100844.44;223673;1263;140347;-87
2023/10/09 17:46:45;;;;;;;27.30;15.60;;;;;;;9.88;97.26;100851.11;224170;1267;138602;-87
2023/10/09 17:52:46;;;;;;;26.10;15.00;;;;;;;9.76;97.76;100853.85;223481;1267;140073;-87
2023/10/09 18:04:48;;;;;;;31.30;17.40;;;;;;;9.47;98.66;100848.83;223678;1264;139660;-88
2023/10/09 18:10:50;;;;;;;36.50;24.20;;;;;;;9.27;99.51;100850.50;223558;1268;140122;-87
2023/10/09 18:16:52;;;;;;;37.20;23.10;;;;;;;9.18;99.87;100858.29;224093;1264;139087;-89
2023/10/09 18:28:41;;;;;;;38.50;23.20;;;;;;;9.03;100.00;100848.51;224167;1264;139008;-88
2023/10/09 18:34:43;;;;;;;58.10;34.20;;;;;;;8.97;100.00;100839.83;223419;1267;140118;-88
2023/10/09 18:40:41;;;;;;;;;;;;;;;;;;;;;
2023/10/09 18:46:47;;;;;;;63.20;39.50;;;;;;;8.81;100.00;100850.07;224090;1267;138778;-87
2023/10/09 18:52:49;;;;;;;59.10;36.50;;;;;;;8.72;100.00;100852.30;223628;1263;140021;-89
2023/10/09 18:59:14;;;;;;;68.50;40.50;;;;;;;8.66;100.00;100856.69;224229;1267;138860;-87
2023/10/09 19:04:52;;;;;;;74.70;47.30;;;;;;;8.62;100.00;100865.66;223460;1267;139991;-89
2023/10/09 19:16:51;;;;;;;64.70;37.70;;;;;;;8.51;100.00;100869.55;224207;1267;139092;-89
2023/10/09 19:22:40;;;;;;;66.40;36.00;;;;;;;8.51;100.00;100858.19;223536;1264;139956;-89
2023/10/09 19:28:42;;;;;;;45.40;29.20;;;;;;;8.51;100.00;100851.52;224212;1266;138644;-89
2023/10/09 19:34:39;;;;;;;;;;;;;;;;;;;;;
2023/10/09 19:40:41;;;;;;;48.00;27.70;;;;;;;8.46;100.00;100858.84;223536;1263;140132;-89
2023/10/09 19:46:33;;;;;;;49.10;27.90;;;;;;;8.42;100.00;100866.64;224228;1266;139309;-88
2023/10/09 19:52:33;;;;;;;44.60;24.50;;;;;;;8.40;100.00;100872.30;223716;1264;140318;-88
2023/10/09 19:58:34;;;;;;;52.70;26.90;;;;;;;8.41;100.00;100864.40;224284;1263;138765;-87
2023/10/09 20:04:36;;;;;;;47.50;27.20;;;;;;;8.34;100.00;100864.37;223679;1263;140618;-88
2023/10/09 20:10:27;;;;;;;47.90;27.50;;;;;;;8.25;100.00;100882.16;223692;1264;140124;-87
2023/10/09 20:22:21;;;;;;;65.40;33.30;;;;;;;8.08;100.00;100891.29;223621;1263;141448;-89
2023/10/09 20:28:25;;;;;;;78.90;39.00;;;;;;;7.99;100.00;100893.29;224306;1263;138780;-89
2023/10/09 20:34:26;;;;;;;72.70;39.70;;;;;;;7.92;100.00;100892.93;219553;1263;5348539;-87
2023/10/09 20:46:19;;;;;;;70.90;37.60;;;;;;;7.77;100.00;100891.87;224121;1264;139120;-86
2023/10/09 20:58:23;;;;;;;68.10;39.80;;;;;;;7.58;100.00;100903.49;224327;1264;139207;-88
2023/10/09 21:10:49;;;;;;;74.40;42.10;;;;;;;7.42;100.00;100901.05;223711;1263;140339;-89
2023/10/09 21:16:34;;;;;;;65.80;39.70;;;;;;;7.35;100.00;100898.10;224105;1263;138700;-87
2023/10/09 21:22:37;;;;;;;68.40;39.60;;;;;;;7.28;100.00;100900.61;223797;1264;140251;-88
2023/10/09 21:28:35;;;;;;;55.90;35.80;;;;;;;7.22;100.00;100893.59;224257;1263;139449;-87
2023/10/09 21:34:21;;;;;;;55.70;38.20;;;;;;;7.07;100.00;100883.90;223815;1263;140437;-87
2023/10/09 21:40:48;;;;;;;57.10;36.30;;;;;;;6.97;100.00;100891.31;223889;1263;139894;-86
2023/10/09 21:46:25;;;;;;;55.10;34.90;;;;;;;6.89;100.00;100899.42;224313;1263;138518;-86
2023/10/09 21:52:25;;;;;;;52.50;32.80;;;;;;;6.76;100.00;100904.59;223770;1264;140160;-86
2023/10/09 22:04:27;;;;;;;69.30;39.40;;;;;;;6.51;100.00;100909.04;223813;1264;139952;-86
2023/10/09 22:10:28;;;;;;;58.30;32.40;;;;;;;6.43;100.00;100896.35;223812;1264;140073;-87
2023/10/09 22:16:29;;;;;;;54.90;31.00;;;;;;;6.36;100.00;100898.65;224274;1263;139242;-87
2023/10/09 22:22:43;;;;;;;;;;;;;;;;;;;;;
2023/10/09 22:28:32;;;;;;;46.70;28.10;;;;;;;6.21;100.00;100903.21;224324;1263;138733;-87
2023/10/09 22:34:30;;;;;;;;;;;;;;;;;;;;;
2023/10/09 22:58:52;;;;;;;51.70;30.70;;;;;;;5.81;100.00;100901.12;224244;1263;139073;-87
2023/10/09 23:05:05;;;;;;;54.50;30.40;;;;;;;5.72;100.00;100908.39;223862;1264;140069;-87
2023/10/09 23:10:52;;;;;;;59.60;33.90;;;;;;;5.66;100.00;100912.77;223850;1263;140175;-87
2023/10/09 23:29:29;;;;;;;44.30;25.60;;;;;;;5.41;100.00;100929.92;224306;1264;138553;-87
2023/10/09 23:35:00;;;;;;;43.50;25.70;;;;;;;5.35;100.00;100934.39;223836;1263;140477;-87
2023/10/09 23:47:26;;;;;;;43.50;25.70;;;;;;;5.26;100.00;100932.36;224311;1263;138562;-87
2023/10/09 23:53:03;;;;;;;42.00;25.80;;;;;;;5.21;100.00;100935.48;223754;1263;140151;-86
